Time;durP1;ratioP1;P1;durP2;ratioP2;P2;SDS_P1;SDS_P2;PMS_P1;PMS_P2;Temp;Humidity;BMP_temperature;BMP_pressure;BME280_temperature;BME280_humidity;BME280_pressure;Samples;Min_cycle;Max_cycle;Signal;HPM_P1;HPM_P2
2022/07/30 00:00:23;;;;;;;5.60;3.97;;;;;;;18.59;63.22;95735.78;4976297;28;20192;-80
2022/07/30 00:02:49;;;;;;;3.45;3.25;;;;;;;18.59;62.75;95735.78;4949549;28;20715;-81
2022/07/30 00:05:14;;;;;;;3.60;3.30;;;;;;;18.56;62.98;95736.19;4974074;28;20243;-80
2022/07/30 00:07:40;;;;;;;3.72;3.42;;;;;;;18.60;62.55;95735.59;4950290;28;20668;-80
2022/07/30 00:10:05;;;;;;;3.83;3.33;;;;;;;18.49;63.43;95735.31;4967611;28;20200;-79
2022/07/30 00:12:31;;;;;;;3.97;3.10;;;;;;;18.51;63.52;95742.00;4951188;28;20286;-81
2022/07/30 00:14:56;;;;;;;3.85;3.55;;;;;;;18.40;64.37;95739.91;4983244;28;20673;-81
2022/07/30 00:17:21;;;;;;;3.67;3.38;;;;;;;18.40;64.16;95739.91;4981944;28;20192;-81
2022/07/30 00:19:47;;;;;;;4.80;3.22;;;;;;;18.39;64.31;95740.91;4967459;28;20306;-81
2022/07/30 00:22:12;;;;;;;4.50;3.22;;;;;;;18.30;64.84;95742.88;4973010;28;20234;-80
2022/07/30 00:24:38;;;;;;;3.92;3.60;;;;;;;18.32;64.93;95738.22;4954087;28;20678;-80
2022/07/30 00:27:03;;;;;;;3.80;3.40;;;;;;;18.37;64.68;95742.91;4972675;28;20203;-80
2022/07/30 00:29:29;;;;;;;3.40;3.03;;;;;;;18.37;64.68;95735.00;4985377;28;20184;-80
2022/07/30 00:31:54;;;;;;;5.20;3.38;;;;;;;18.23;65.53;95739.38;4952297;28;20627;-81
2022/07/30 00:34:20;;;;;;;3.63;3.33;;;;;;;18.26;65.37;95736.34;4959855;28;20215;-81
2022/07/30 00:36:45;;;;;;;3.70;3.40;;;;;;;18.16;65.69;95733.25;4958303;28;20192;-81
2022/07/30 00:39:10;;;;;;;3.28;3.08;;;;;;;18.20;65.44;95731.88;4964883;28;20203;-79
2022/07/30 00:42:01;;;;;;;4.22;3.20;;;;;;;18.15;65.63;95731.63;4991964;28;20646;-80
2022/07/30 00:44:27;;;;;;;3.60;3.20;;;;;;;18.12;66.04;95737.25;4974505;28;20223;-79
2022/07/30 00:46:52;;;;;;;4.03;3.63;;;;;;;18.08;66.06;95728.94;4966829;28;20183;-80
2022/07/30 00:49:18;;;;;;;4.68;3.30;;;;;;;17.99;66.35;95730.06;4966009;28;20184;-80
2022/07/30 00:51:43;;;;;;;3.72;3.42;;;;;;;17.93;66.24;95724.75;4971975;28;20180;-80
2022/07/30 00:54:08;;;;;;;3.88;3.58;;;;;;;17.87;66.99;95725.50;4950059;28;20204;-79
2022/07/30 00:56:34;;;;;;;4.93;3.50;;;;;;;17.86;66.92;95726.53;4982080;28;20228;-80
2022/07/30 00:58:59;;;;;;;4.25;3.60;;;;;;;17.81;66.82;95724.44;4975269;28;20214;-80
2022/07/30 01:01:24;;;;;;;3.85;3.45;;;;;;;17.78;67.00;95725.63;4964395;28;20227;-80
2022/07/30 01:03:49;;;;;;;3.78;3.40;;;;;;;17.78;67.18;95724.81;4949071;28;20211;-80
2022/07/30 01:06:15;;;;;;;3.55;3.17;;;;;;;17.79;67.05;95727.25;4983353;28;20265;-80
2022/07/30 01:08:42;;;;;;;4.28;2.95;;;;;;;17.79;67.09;95727.25;4964623;28;20188;-80
2022/07/30 01:11:08;;;;;;;3.85;3.30;;;;;;;17.79;67.03;95729.88;4973566;28;20715;-79
2022/07/30 01:13:33;;;;;;;3.55;3.25;;;;;;;17.78;66.97;95733.53;4975889;28;20310;-78
2022/07/30 01:15:59;;;;;;;4.25;3.58;;;;;;;17.75;67.56;95731.25;4964098;28;20272;-80
2022/07/30 01:19:47;;;;;;;4.22;3.83;;;;;;;17.78;67.14;95730.91;4966064;28;20208;-79
2022/07/30 01:21:11;;;;;;;3.97;3.67;;;;;;;17.72;66.94;95731.63;4984848;28;20259;-80
2022/07/30 01:23:43;;;;;;;3.67;3.35;;;;;;;17.75;67.47;95730.44;4988194;28;20251;-80
2022/07/30 01:26:10;;;;;;;4.60;4.18;;;;;;;17.72;66.84;95731.63;4966929;28;20660;-80
2022/07/30 01:28:41;;;;;;;4.43;4.00;;;;;;;17.68;67.02;95729.56;4957814;28;20636;-79
2022/07/30 01:31:08;;;;;;;4.80;3.53;;;;;;;17.63;67.00;95730.09;4948100;28;20559;-80
2022/07/30 01:33:36;;;;;;;7.13;4.10;;;;;;;17.63;66.54;95727.47;4949978;28;20204;-80
2022/07/30 01:36:02;;;;;;;5.60;4.32;;;;;;;17.61;66.67;95732.09;4958562;28;20194;-80
2022/07/30 01:38:29;;;;;;;4.35;4.00;;;;;;;17.58;66.45;95731.66;4972197;28;20208;-78
2022/07/30 01:40:55;;;;;;;4.97;4.57;;;;;;;17.58;66.31;95735.13;4965476;28;20553;-80
2022/07/30 01:43:21;;;;;;;7.53;4.55;;;;;;;17.52;66.61;95731.41;4958535;28;20355;-79
2022/07/30 01:45:48;;;;;;;4.80;4.38;;;;;;;17.46;66.67;95734.75;4946771;28;20203;-80
2022/07/30 01:48:16;;;;;;;5.95;4.28;;;;;;;17.45;66.58;95722.66;4949194;28;20319;-80
2022/07/30 01:50:43;;;;;;;4.32;4.03;;;;;;;17.45;66.50;95721.84;4965835;28;20664;-80
2022/07/30 01:53:08;;;;;;;7.00;4.43;;;;;;;17.39;66.51;95727.81;4965980;28;20207;-80
2022/07/30 01:55:35;;;;;;;4.68;4.28;;;;;;;17.33;66.70;95724.13;4956734;28;20200;-80
2022/07/30 01:58:03;;;;;;;7.68;4.75;;;;;;;17.26;66.79;95723.25;4947150;28;20204;-81
2022/07/30 02:00:29;;;;;;;5.70;5.07;;;;;;;17.21;66.85;95718.53;4970894;28;20199;-80
2022/07/30 02:02:56;;;;;;;6.10;5.38;;;;;;;17.14;67.21;95728.16;4971713;28;20206;-81
2022/07/30 02:05:21;;;;;;;7.15;5.00;;;;;;;17.09;67.58;95725.25;4965151;28;20188;-81
2022/07/30 02:08:02;;;;;;;8.00;5.00;;;;;;;17.03;67.51;95731.22;4963310;28;20204;-80
2022/07/30 02:10:43;;;;;;;7.25;5.40;;;;;;;16.96;67.70;95730.31;4963080;28;20184;-80
2022/07/30 02:13:10;;;;;;;8.25;4.78;;;;;;;16.93;67.73;95725.47;4946724;28;20595;-79
2022/07/30 02:15:42;;;;;;;6.10;5.30;;;;;;;16.87;68.04;95727.00;4964121;28;20191;-80
2022/07/30 02:18:17;;;;;;;5.60;5.03;;;;;;;16.84;68.11;95737.03;4957978;28;20662;-80
2022/07/30 02:20:50;;;;;;;7.45;5.28;;;;;;;16.78;68.30;95728.06;4965685;28;20214;-81
2022/07/30 02:23:17;;;;;;;6.07;4.80;;;;;;;16.77;68.44;95736.13;4973034;28;20814;-79
2022/07/30 02:25:46;;;;;;;6.03;5.03;;;;;;;16.70;68.90;95731.63;4963269;28;20632;-80
2022/07/30 02:28:16;;;;;;;5.55;5.05;;;;;;;16.67;69.42;95741.63;4962324;28;20223;-81
2022/07/30 02:30:53;;;;;;;6.57;4.47;;;;;;;16.67;69.21;95739.00;4963472;28;20210;-80
2022/07/30 02:33:26;;;;;;;8.00;5.38;;;;;;;16.64;68.87;95740.19;4971199;28;20287;-80
2022/07/30 02:35:53;;;;;;;8.70;5.50;;;;;;;16.68;68.42;95749.31;4966553;28;20184;-81
2022/07/30 02:38:19;;;;;;;9.25;5.50;;;;;;;16.62;68.73;95752.66;4968834;28;20204;-79
2022/07/30 02:40:45;;;;;;;8.48;5.32;;;;;;;16.66;68.11;95756.53;4974077;28;20180;-80
2022/07/30 02:43:14;;;;;;;5.95;5.45;;;;;;;16.70;67.35;95755.22;4967278;28;20208;-80
2022/07/30 02:45:40;;;;;;;8.90;5.28;;;;;;;16.75;67.33;95752.06;4968269;28;20188;-80
2022/07/30 02:48:08;;;;;;;8.25;5.47;;;;;;;16.74;67.31;95752.25;4967834;28;20539;-80
2022/07/30 02:50:34;;;;;;;7.97;4.60;;;;;;;16.78;66.92;95750.88;4977664;28;20185;-81
2022/07/30 02:53:00;;;;;;;4.85;4.45;;;;;;;16.74;67.37;95754.84;4979968;28;20250;-81
2022/07/30 02:55:27;;;;;;;7.10;5.03;;;;;;;16.73;67.34;95755.84;4968422;28;20188;-80
2022/07/30 02:57:54;;;;;;;5.72;5.15;;;;;;;16.74;67.40;95762.72;4974936;28;20552;-81
2022/07/30 03:00:20;;;;;;;6.68;5.35;;;;;;;16.75;67.06;95756.47;4961271;28;20188;-81
2022/07/30 03:02:46;;;;;;;5.28;4.78;;;;;;;16.85;66.87;95759.66;4977162;28;20251;-80
2022/07/30 03:05:12;;;;;;;6.20;5.25;;;;;;;16.87;66.51;95762.91;4965995;28;20238;-81
2022/07/30 03:07:38;;;;;;;11.40;5.43;;;;;;;16.83;66.86;95766.88;4976966;28;20188;-80
2022/07/30 03:10:04;;;;;;;6.55;5.30;;;;;;;16.80;67.08;95765.44;4976442;28;20188;-81
2022/07/30 03:12:30;;;;;;;6.50;5.43;;;;;;;16.81;66.98;95763.63;4951507;28;20345;-80
2022/07/30 03:14:56;;;;;;;7.82;5.47;;;;;;;16.77;67.14;95770.22;4960275;28;20821;-81
2022/07/30 03:17:23;;;;;;;5.90;4.72;;;;;;;16.80;66.18;95767.25;4967463;28;20191;-81
2022/07/30 03:19:48;;;;;;;7.22;5.00;;;;;;;16.87;65.59;95762.91;4974800;28;20235;-80
2022/07/30 03:22:16;;;;;;;6.90;5.20;;;;;;;16.86;65.20;95774.38;4969337;28;20696;-81
2022/07/30 03:24:43;;;;;;;4.70;4.30;;;;;;;16.82;64.97;95779.19;4966597;28;20188;-81
2022/07/30 03:27:08;;;;;;;7.82;4.65;;;;;;;16.87;64.25;95774.22;4989236;28;20565;-80
2022/07/30 03:29:34;;;;;;;6.20;4.82;;;;;;;16.90;64.12;95779.09;4953063;28;20191;-81
2022/07/30 03:31:59;;;;;;;6.43;4.80;;;;;;;16.84;64.30;95779.00;4966686;28;20271;-81
2022/07/30 03:34:25;;;;;;;5.75;4.55;;;;;;;16.82;64.24;95775.75;4950759;28;20598;-81
2022/07/30 03:36:51;;;;;;;6.63;4.55;;;;;;;16.80;64.27;95783.00;4968663;28;20195;-80
2022/07/30 03:39:18;;;;;;;6.88;4.38;;;;;;;16.75;64.68;95782.72;4973609;28;20706;-81
2022/07/30 03:41:43;;;;;;;5.82;4.57;;;;;;;16.81;64.53;95782.81;4951086;28;20214;-80
2022/07/30 03:44:09;;;;;;;6.07;4.57;;;;;;;16.83;64.36;95787.88;4960399;28;20580;-80
2022/07/30 03:46:35;;;;;;;5.47;4.97;;;;;;;16.80;64.69;95778.56;4985038;28;20202;-81
2022/07/30 03:49:01;;;;;;;6.22;4.97;;;;;;;16.85;64.05;95780.63;4966990;28;20181;-81
2022/07/30 03:51:27;;;;;;;6.40;5.00;;;;;;;16.91;63.86;95791.22;4957249;28;20188;-81
2022/07/30 03:53:52;;;;;;;9.50;5.40;;;;;;;16.87;63.77;95789.97;4974955;28;20306;-81
2022/07/30 03:56:18;;;;;;;6.68;5.90;;;;;;;16.83;64.55;95787.88;4966344;28;20251;-79
2022/07/30 03:58:43;;;;;;;8.43;5.10;;;;;;;16.83;64.22;95793.94;4967138;28;20224;-81
2022/07/30 04:01:09;;;;;;;8.23;5.45;;;;;;;16.80;64.57;95796.91;4967920;28;20540;-80
2022/07/30 04:03:34;;;;;;;7.97;6.15;;;;;;;16.80;64.48;95802.16;4965561;28;20208;-80
2022/07/30 04:05:59;;;;;;;8.50;5.30;;;;;;;16.82;64.48;95804.59;4965519;28;20562;-80
2022/07/30 04:08:28;;;;;;;8.45;5.40;;;;;;;16.88;63.93;95806.53;4959742;28;20239;-81
2022/07/30 04:10:53;;;;;;;6.88;5.45;;;;;;;16.91;63.85;95806.97;4958491;28;20220;-81
2022/07/30 04:13:19;;;;;;;6.35;5.28;;;;;;;16.95;63.28;95813.47;4949668;28;20498;-81
2022/07/30 04:15:50;;;;;;;7.60;5.47;;;;;;;17.02;63.62;95815.38;4959332;28;20207;-81
2022/07/30 04:18:16;;;;;;;7.43;5.63;;;;;;;17.04;63.43;95811.56;4974867;28;20359;-82
2022/07/30 04:20:45;;;;;;;7.43;5.60;;;;;;;17.02;63.78;95812.75;4965301;28;20195;-81
2022/07/30 04:23:10;;;;;;;7.78;5.80;;;;;;;17.03;63.79;95809.94;4953974;28;20259;-81
2022/07/30 04:25:37;;;;;;;6.95;5.95;;;;;;;17.05;63.89;95813.22;4949792;28;20188;-79
2022/07/30 04:28:03;;;;;;;8.02;6.05;;;;;;;17.10;63.92;95816.09;4958649;28;20199;-80
2022/07/30 04:30:35;;;;;;;9.82;6.82;;;;;;;17.19;63.24;95819.44;4967226;28;20270;-80
2022/07/30 04:33:03;;;;;;;6.97;6.28;;;;;;;17.17;63.29;95819.63;4967156;28;20659;-80
2022/07/30 04:35:32;;;;;;;10.98;7.07;;;;;;;17.23;63.10;95825.97;4963658;28;20196;-80
2022/07/30 04:37:59;;;;;;;9.95;6.78;;;;;;;17.34;62.96;95819.44;4980220;28;20184;-79
2022/07/30 04:40:24;;;;;;;11.38;8.05;;;;;;;17.45;62.46;95817.16;4959367;28;20211;-80
2022/07/30 04:42:49;;;;;;;9.02;7.88;;;;;;;17.55;61.93;95828.19;4953243;28;20212;-81
2022/07/30 04:45:15;;;;;;;13.00;7.03;;;;;;;17.61;61.77;95829.25;4965120;28;20187;-81
2022/07/30 04:47:40;;;;;;;10.13;7.97;;;;;;;17.62;61.26;95827.44;4982260;28;20589;-80
2022/07/30 04:50:06;;;;;;;8.73;7.07;;;;;;;18.11;60.37;95822.38;4947875;28;20189;-82
2022/07/30 04:52:32;;;;;;;7.47;6.63;;;;;;;19.77;54.55;95835.63;4949661;28;20203;-81
2022/07/30 04:55:01;;;;;;;11.48;7.25;;;;;;;21.30;50.02;95833.16;4972645;28;20208;-81
2022/07/30 04:57:27;;;;;;;8.25;6.93;;;;;;;22.93;45.28;95838.78;4988618;28;20216;-81
2022/07/30 04:59:52;;;;;;;8.20;6.47;;;;;;;23.85;42.60;95837.78;4965783;28;20325;-81
2022/07/30 05:02:19;;;;;;;9.07;6.38;;;;;;;24.74;40.54;95846.78;4958341;28;20203;-81
2022/07/30 05:04:45;;;;;;;9.52;7.13;;;;;;;25.37;38.82;95850.63;4947194;28;20188;-80
2022/07/30 05:07:12;;;;;;;6.80;6.10;;;;;;;26.05;37.16;95852.56;4949463;28;20535;-80
2022/07/30 05:09:38;;;;;;;9.00;6.13;;;;;;;26.41;36.81;95856.72;4966252;28;20176;-81
2022/07/30 05:12:03;;;;;;;7.60;6.82;;;;;;;26.65;35.98;95849.41;4963439;28;20208;-81
2022/07/30 05:14:28;;;;;;;8.73;7.00;;;;;;;27.39;35.02;95857.25;4964759;28;20203;-81
2022/07/30 05:16:54;;;;;;;9.05;6.32;;;;;;;27.81;33.79;95859.41;4965286;28;20663;-81
2022/07/30 05:19:20;;;;;;;8.27;6.65;;;;;;;27.99;33.23;95856.41;4974763;28;20211;-82
2022/07/30 05:21:45;;;;;;;8.68;5.53;;;;;;;28.77;32.28;95859.63;4949802;28;20184;-82
2022/07/30 05:24:11;;;;;;;9.75;6.50;;;;;;;28.03;32.88;95862.88;4972130;28;20214;-81
2022/07/30 05:26:36;;;;;;;6.78;6.18;;;;;;;28.19;33.37;95863.88;4967723;28;20184;-81
2022/07/30 05:29:02;;;;;;;8.07;6.40;;;;;;;27.88;32.94;95866.16;4965690;28;20192;-83
2022/07/30 05:31:27;;;;;;;8.10;6.30;;;;;;;28.19;33.28;95871.88;4949353;28;20184;-79
2022/07/30 05:33:52;;;;;;;10.75;6.18;;;;;;;28.79;32.00;95860.97;4984423;28;20682;-79
2022/07/30 05:36:19;;;;;;;11.00;6.43;;;;;;;28.10;33.29;95871.50;4967037;28;20184;-83
2022/07/30 05:38:44;;;;;;;9.32;6.60;;;;;;;28.04;32.90;95869.84;4990082;28;20212;-82
2022/07/30 05:41:09;;;;;;;7.93;6.65;;;;;;;27.14;34.05;95871.00;4956079;28;20195;-81
2022/07/30 05:43:34;;;;;;;8.20;6.25;;;;;;;28.10;33.45;95874.19;4976151;28;20211;-82
2022/07/30 05:46:00;;;;;;;6.80;6.13;;;;;;;28.23;32.82;95872.97;4955769;28;20225;-81
2022/07/30 05:48:26;;;;;;;8.32;5.93;;;;;;;28.28;33.08;95873.03;4964361;28;20283;-81
2022/07/30 05:50:52;;;;;;;8.82;6.07;;;;;;;28.12;33.22;95877.41;4966093;28;20215;-84
2022/07/30 05:53:17;;;;;;;8.73;6.88;;;;;;;28.35;32.56;95881.66;4966107;28;20660;-82
2022/07/30 05:55:42;;;;;;;8.77;6.07;;;;;;;28.71;32.49;95879.34;4961967;28;20204;-82
2022/07/30 05:58:08;;;;;;;9.98;7.07;;;;;;;29.05;31.44;95870.03;4962350;28;20200;-81
2022/07/30 06:00:34;;;;;;;10.32;5.95;;;;;;;28.87;31.81;95878.41;4958388;28;20614;-83
2022/07/30 06:03:00;;;;;;;6.80;5.60;;;;;;;29.48;30.83;95873.53;4964563;28;20222;-81
2022/07/30 06:05:25;;;;;;;7.78;6.03;;;;;;;29.57;30.88;95874.69;4965130;28;20191;-82
2022/07/30 06:07:50;;;;;;;7.95;7.15;;;;;;;29.45;30.50;95870.59;4963866;28;20180;-82
2022/07/30 06:10:16;;;;;;;7.20;6.50;;;;;;;29.20;31.05;95885.41;4985695;28;20275;-82
2022/07/30 06:12:41;;;;;;;9.07;6.47;;;;;;;29.37;30.19;95887.13;4976089;28;20634;-81
2022/07/30 06:15:09;;;;;;;8.43;6.28;;;;;;;30.23;28.97;95881.44;4966346;28;20208;-83
2022/07/30 06:17:43;;;;;;;11.77;7.25;;;;;;;29.37;30.19;95882.56;4986730;28;20184;-83
2022/07/30 06:20:10;;;;;;;9.13;6.63;;;;;;;30.31;28.89;95884.41;4950946;28;20241;-83
2022/07/30 06:22:35;;;;;;;7.80;7.15;;;;;;;29.87;29.32;95878.59;4970022;28;20208;-83
2022/07/30 06:25:01;;;;;;;8.45;6.90;;;;;;;29.80;29.83;95883.38;4964924;28;20196;-82
2022/07/30 06:27:27;;;;;;;10.85;8.45;;;;;;;30.68;27.96;95886.91;4969468;28;20683;-82
2022/07/30 06:29:52;;;;;;;7.22;6.30;;;;;;;30.12;29.17;95894.78;4968523;28;20184;-83
2022/07/30 06:32:18;;;;;;;7.93;6.18;;;;;;;29.69;29.78;95879.84;4987415;28;20667;-82
2022/07/30 06:34:43;;;;;;;8.50;5.90;;;;;;;29.90;29.68;95886.91;4976855;28;20283;-83
2022/07/30 06:37:09;;;;;;;7.10;5.63;;;;;;;30.11;28.74;95893.16;4967163;28;20203;-83
2022/07/30 06:39:34;;;;;;;5.72;5.03;;;;;;;30.44;28.14;95893.81;4952091;28;20214;-83
2022/07/30 06:41:59;;;;;;;7.80;5.10;;;;;;;30.33;28.62;95890.31;4978017;28;20187;-82
2022/07/30 06:44:25;;;;;;;6.38;4.57;;;;;;;30.41;27.71;95891.66;4969783;28;20184;-82
2022/07/30 06:46:50;;;;;;;5.43;3.85;;;;;;;30.53;27.22;95897.56;4969340;28;20187;-83
2022/07/30 06:49:15;;;;;;;4.78;3.80;;;;;;;29.78;28.26;95888.19;4969119;28;20194;-83
2022/07/30 06:51:40;;;;;;;5.13;4.05;;;;;;;30.18;28.43;95903.63;4984305;28;20189;-82
2022/07/30 06:54:06;;;;;;;8.38;4.18;;;;;;;30.03;28.98;95896.31;4968110;28;20233;-82
2022/07/30 06:56:31;;;;;;;5.25;3.97;;;;;;;29.59;28.72;95901.19;4967139;28;20248;-83
2022/07/30 06:58:56;;;;;;;8.05;4.80;;;;;;;29.50;28.80;95908.88;4972860;28;20203;-81
2022/07/30 07:01:23;;;;;;;5.90;4.13;;;;;;;30.01;28.04;95906.47;4960060;28;20183;-82
2022/07/30 07:03:55;;;;;;;7.18;3.80;;;;;;;29.72;28.56;95902.59;4969091;28;20215;-83
2022/07/30 07:06:20;;;;;;;6.00;4.20;;;;;;;30.10;27.71;95914.84;4958848;28;20207;-81
2022/07/30 07:08:45;;;;;;;7.38;4.15;;;;;;;29.92;28.06;95908.06;4976201;28;20652;-81
2022/07/30 07:11:11;;;;;;;10.85;4.25;;;;;;;29.72;28.54;95900.72;4960266;28;20188;-79
2022/07/30 07:13:36;;;;;;;4.97;4.18;;;;;;;29.23;29.08;95908.13;4949743;28;20287;-81
2022/07/30 07:16:01;;;;;;;6.97;3.90;;;;;;;29.69;28.14;95911.97;4958448;28;20889;-81
2022/07/30 07:18:27;;;;;;;5.05;4.55;;;;;;;30.22;26.80;95909.28;4967380;28;20205;-81
2022/07/30 07:20:52;;;;;;;4.65;3.88;;;;;;;30.32;26.67;95920.03;4969367;28;20184;-83
2022/07/30 07:23:17;;;;;;;8.93;3.90;;;;;;;29.19;29.54;95923.09;4959912;28;20228;-81
2022/07/30 07:25:43;;;;;;;4.95;4.13;;;;;;;29.28;27.65;95908.19;4984114;28;20278;-83
2022/07/30 07:28:08;;;;;;;5.28;3.80;;;;;;;30.71;25.92;95918.53;4967409;28;20196;-82
2022/07/30 07:30:33;;;;;;;5.85;3.38;;;;;;;29.70;27.34;95918.13;4950241;28;20188;-83
2022/07/30 07:32:58;;;;;;;4.65;3.92;;;;;;;29.99;26.26;95913.97;4968377;28;20212;-82
2022/07/30 07:35:24;;;;;;;6.38;3.78;;;;;;;29.33;28.48;95919.75;4966327;28;20227;-83
2022/07/30 07:37:49;;;;;;;10.35;3.13;;;;;;;29.51;28.25;95918.56;4949948;28;20303;-82
2022/07/30 07:40:15;;;;;;;7.03;3.20;;;;;;;29.64;26.83;95919.16;4975799;28;20180;-82
2022/07/30 07:42:40;;;;;;;5.88;2.80;;;;;;;29.92;27.02;95915.28;4975021;28;20471;-82
2022/07/30 07:45:06;;;;;;;4.63;3.50;;;;;;;28.80;27.37;95925.94;4949821;28;20184;-82
2022/07/30 07:47:42;;;;;;;10.65;3.30;;;;;;;27.11;30.41;95919.47;4971408;28;20649;-82
2022/07/30 07:50:07;;;;;;;4.97;3.25;;;;;;;27.43;30.05;95916.22;4968134;28;20191;-83
2022/07/30 07:52:32;;;;;;;4.47;3.20;;;;;;;26.74;31.27;95919.88;4962919;28;20585;-82
2022/07/30 07:54:58;;;;;;;3.38;3.08;;;;;;;27.22;31.26;95915.94;4976178;28;20246;-84
2022/07/30 07:57:23;;;;;;;5.25;2.70;;;;;;;27.85;29.79;95913.91;4952607;28;20261;-80
2022/07/30 07:59:50;;;;;;;4.88;2.60;;;;;;;27.88;30.64;95919.53;4980095;28;20203;-78
2022/07/30 08:02:15;;;;;;;11.10;3.67;;;;;;;27.56;30.19;95922.00;4969570;28;20200;-80
2022/07/30 08:04:40;;;;;;;3.28;2.97;;;;;;;27.57;30.70;95918.31;4975406;28;20203;-82
2022/07/30 08:07:06;;;;;;;6.47;3.45;;;;;;;27.09;30.18;95913.56;4971642;28;20664;-82
2022/07/30 08:09:31;;;;;;;7.30;3.35;;;;;;;26.96;30.56;95911.22;4968357;28;20232;-83
2022/07/30 08:11:56;;;;;;;9.38;3.05;;;;;;;26.42;31.30;95913.47;4966307;28;20187;-81
2022/07/30 08:14:22;;;;;;;8.48;3.13;;;;;;;26.56;30.94;95916.63;4963233;28;20185;-82
2022/07/30 08:16:47;;;;;;;5.82;3.63;;;;;;;26.17;31.66;95916.41;4977596;28;20274;-82
2022/07/30 08:19:13;;;;;;;6.10;3.22;;;;;;;26.52;31.73;95918.97;4975257;28;20216;-83
2022/07/30 08:21:39;;;;;;;10.43;4.10;;;;;;;26.50;31.93;95918.38;4951080;28;20656;-81
2022/07/30 08:24:04;;;;;;;4.90;2.63;;;;;;;26.68;30.62;95920.88;4976624;28;20204;-80
2022/07/30 08:26:30;;;;;;;4.88;2.80;;;;;;;25.79;31.82;95923.06;4974769;28;20186;-82
2022/07/30 08:28:55;;;;;;;4.60;2.63;;;;;;;26.05;30.81;95916.44;4968611;28;20688;-85
2022/07/30 08:31:20;;;;;;;7.65;3.53;;;;;;;26.01;31.33;95923.28;4968950;28;20254;-82
2022/07/30 08:33:45;;;;;;;6.13;2.97;;;;;;;25.41;32.54;95918.22;4951426;28;20213;-83
2022/07/30 08:36:11;;;;;;;4.57;3.50;;;;;;;25.32;33.39;95928.41;4950932;28;20188;-81
2022/07/30 08:38:37;;;;;;;3.80;3.15;;;;;;;25.23;33.42;95923.66;4967447;28;20200;-82
2022/07/30 08:41:02;;;;;;;6.80;2.90;;;;;;;25.30;34.13;95919.03;4949697;28;20196;-83
2022/07/30 08:43:28;;;;;;;3.97;3.00;;;;;;;25.06;33.65;95918.22;4967363;28;20291;-82
2022/07/30 08:45:55;;;;;;;5.75;3.25;;;;;;;24.80;32.62;95919.41;4958386;28;20192;-81
2022/07/30 08:48:21;;;;;;;7.10;3.40;;;;;;;24.48;33.54;95924.97;4965853;28;20188;-83
2022/07/30 08:50:47;;;;;;;8.05;2.80;;;;;;;24.35;34.54;95926.97;4952889;28;20200;-82
2022/07/30 08:53:12;;;;;;;3.88;2.90;;;;;;;24.65;33.56;95929.63;4949507;28;20710;-81
2022/07/30 08:55:39;;;;;;;6.43;3.00;;;;;;;24.56;34.12;95919.34;4956672;28;20185;-82
2022/07/30 08:58:05;;;;;;;5.28;3.20;;;;;;;23.64;36.05;95925.75;4966742;28;20695;-83
2022/07/30 09:00:30;;;;;;;4.43;3.30;;;;;;;24.13;36.13;95918.69;4966503;28;20184;-82
2022/07/30 09:02:56;;;;;;;6.95;3.45;;;;;;;24.66;35.65;95921.47;4966142;28;20700;-83
2022/07/30 09:05:22;;;;;;;4.15;2.95;;;;;;;24.78;35.36;95914.31;4966690;28;20199;-81
2022/07/30 09:07:47;;;;;;;4.63;3.00;;;;;;;24.81;35.66;95913.84;4972351;28;20195;-81
2022/07/30 09:10:13;;;;;;;4.18;3.20;;;;;;;24.81;34.78;95916.50;4965189;28;20188;-82
2022/07/30 09:12:40;;;;;;;5.88;3.65;;;;;;;24.59;35.09;95926.03;4960270;28;20557;-82
2022/07/30 09:15:15;;;;;;;4.78;3.10;;;;;;;24.58;34.77;95929.75;4971829;28;20637;-81
2022/07/30 09:17:48;;;;;;;6.35;3.38;;;;;;;24.48;35.23;95930.28;4965966;28;20188;-81
2022/07/30 09:20:14;;;;;;;4.80;3.25;;;;;;;23.80;35.44;95924.38;4967715;28;20375;-81
2022/07/30 09:22:46;;;;;;;5.43;2.80;;;;;;;24.09;34.84;95928.91;4974700;28;20252;-82
2022/07/30 09:25:11;;;;;;;6.00;2.75;;;;;;;24.35;34.01;95922.47;4969999;28;20211;-81
2022/07/30 09:27:47;;;;;;;7.47;4.05;;;;;;;24.14;34.50;95926.41;4969966;28;20763;-80
2022/07/30 09:30:13;;;;;;;5.72;3.25;;;;;;;24.14;35.23;95930.91;4952347;28;20187;-82
2022/07/30 09:32:51;;;;;;;3.78;3.42;;;;;;;24.55;33.83;95933.63;4952110;28;20202;-81
2022/07/30 09:35:17;;;;;;;6.07;3.10;;;;;;;24.69;33.51;95936.13;4970838;28;20183;-81
2022/07/30 09:37:42;;;;;;;7.18;4.03;;;;;;;25.09;32.93;95921.22;4963992;28;20251;-81
2022/07/30 09:40:17;;;;;;;6.18;2.50;;;;;;;24.90;34.50;95924.16;4961156;28;20208;-81
2022/07/30 09:42:43;;;;;;;3.70;2.70;;;;;;;24.99;33.14;95918.28;4987405;28;20208;-84
2022/07/30 09:45:11;;;;;;;4.53;3.22;;;;;;;24.72;33.72;95927.69;4972596;28;20235;-82
2022/07/30 09:47:41;;;;;;;5.03;2.67;;;;;;;24.42;34.52;95933.03;4973228;28;20187;-83
2022/07/30 09:50:08;;;;;;;5.82;3.10;;;;;;;24.28;34.86;95925.19;4976317;28;20189;-81
2022/07/30 09:52:36;;;;;;;3.55;2.20;;;;;;;25.02;33.46;95930.31;4965587;28;20213;-84
2022/07/30 09:55:01;;;;;;;7.18;2.90;;;;;;;24.82;34.09;95922.63;4970849;28;20711;-80
2022/07/30 09:57:27;;;;;;;4.03;2.50;;;;;;;25.20;32.21;95921.47;4976836;28;20270;-81
2022/07/30 09:59:52;;;;;;;5.43;2.92;;;;;;;25.36;32.48;95920.78;4974284;28;20212;-81
2022/07/30 10:02:18;;;;;;;7.00;2.78;;;;;;;25.67;32.51;95924.91;4967500;28;20575;-82
2022/07/30 10:04:43;;;;;;;4.97;2.55;;;;;;;25.67;32.12;95928.38;4951153;28;20751;-82
2022/07/30 10:07:19;;;;;;;3.33;2.75;;;;;;;25.89;31.18;95925.97;4992643;28;20191;-82
2022/07/30 10:09:46;;;;;;;4.25;2.90;;;;;;;25.87;31.07;95921.91;4972083;28;20220;-81
2022/07/30 10:12:13;;;;;;;4.85;3.03;;;;;;;25.78;32.07;95921.47;4968511;28;20211;-81
2022/07/30 10:14:42;;;;;;;3.60;2.83;;;;;;;25.72;31.64;95922.41;4958250;28;20206;-80
2022/07/30 10:17:08;;;;;;;3.33;2.55;;;;;;;26.16;32.47;95922.78;4966077;28;20181;-82
2022/07/30 10:19:35;;;;;;;4.82;2.80;;;;;;;26.04;31.09;95922.00;4971028;28;20303;-82
2022/07/30 10:22:01;;;;;;;4.78;1.98;;;;;;;26.09;30.69;95914.94;4990506;28;20187;-82
2022/07/30 10:24:26;;;;;;;4.65;2.35;;;;;;;25.54;32.53;95898.59;4950683;28;20189;-80
2022/07/30 10:26:53;;;;;;;5.43;2.42;;;;;;;26.42;31.89;95916.13;4953341;28;20217;-80
2022/07/30 10:29:19;;;;;;;4.20;2.47;;;;;;;26.55;30.49;95918.47;4969613;28;20184;-82
2022/07/30 10:31:46;;;;;;;5.55;2.53;;;;;;;26.25;30.52;95916.03;4951403;28;20232;-81
2022/07/30 10:34:13;;;;;;;7.28;3.28;;;;;;;25.73;31.97;95901.94;4992642;28;20266;-82
2022/07/30 10:36:50;;;;;;;4.60;2.72;;;;;;;25.34;32.14;95910.38;4977788;28;20195;-81
2022/07/30 10:39:24;;;;;;;5.60;2.85;;;;;;;24.56;33.82;95913.22;4966830;28;20192;-81
2022/07/30 10:41:57;;;;;;;5.63;2.40;;;;;;;24.63;32.98;95910.47;4966222;28;20192;-81
2022/07/30 10:44:50;;;;;;;2.97;2.30;;;;;;;24.95;32.75;95917.13;4974993;28;20348;-82
2022/07/30 10:47:17;;;;;;;2.40;2.08;;;;;;;25.57;32.41;95908.75;4989386;28;20212;-81
2022/07/30 10:50:03;;;;;;;4.80;2.72;;;;;;;25.56;32.64;95904.47;4973222;28;20287;-81
2022/07/30 10:52:49;;;;;;;3.42;2.03;;;;;;;26.31;31.70;95908.94;4953491;28;20271;-81
2022/07/30 10:55:23;;;;;;;2.97;2.00;;;;;;;26.54;31.21;95904.38;4970307;28;20186;-82
2022/07/30 10:58:02;;;;;;;8.45;2.40;;;;;;;26.68;29.78;95904.88;4972449;28;20188;-82
2022/07/30 11:00:29;;;;;;;3.28;2.50;;;;;;;26.04;31.36;95898.03;4971757;28;20199;-81
2022/07/30 11:03:15;;;;;;;5.60;2.13;;;;;;;25.85;31.10;95900.88;4979398;28;20246;-81
2022/07/30 11:05:42;;;;;;;3.78;2.50;;;;;;;25.67;32.09;95898.31;4973693;28;20262;-81
2022/07/30 11:08:35;;;;;;;7.80;2.60;;;;;;;25.86;31.78;95904.34;4970624;28;20216;-82
2022/07/30 11:11:00;;;;;;;3.28;2.20;;;;;;;25.60;32.20;95909.06;4974719;28;20242;-82
2022/07/30 11:13:51;;;;;;;3.63;2.50;;;;;;;25.60;32.34;95902.94;4951598;28;20216;-81
2022/07/30 11:16:19;;;;;;;5.32;2.30;;;;;;;25.40;32.03;95909.44;4987507;28;20190;-81
2022/07/30 11:19:04;;;;;;;3.22;1.92;;;;;;;25.67;31.32;95906.31;4950511;28;20681;-82
2022/07/30 11:21:30;;;;;;;6.07;2.05;;;;;;;25.52;31.34;95904.13;4960047;28;20199;-82
2022/07/30 11:23:56;;;;;;;3.10;2.15;;;;;;;25.93;30.63;95897.03;4966552;28;20209;-82
2022/07/30 11:26:37;;;;;;;3.50;2.42;;;;;;;25.90;31.69;95902.84;4973754;28;20207;-82
2022/07/30 11:29:02;;;;;;;2.22;1.95;;;;;;;26.02;31.22;95892.16;4991789;28;20206;-81
2022/07/30 11:31:30;;;;;;;3.83;2.40;;;;;;;26.66;30.60;95901.63;4964442;28;20200;-83
2022/07/30 11:34:24;;;;;;;3.40;2.28;;;;;;;26.08;30.56;95892.03;4979351;28;20226;-82